sensor_id;sensor_type;location;lat;lon;timestamp;P1;durP1;ratioP1;P2;durP2;ratioP2
19038;SDS011;9652;49.014;12.052;2023-11-21T00:02:26;3.67;;;3.07;;
19038;SDS011;9652;49.014;12.052;2023-11-21T00:04:53;3.40;;;3.03;;
19038;SDS011;9652;49.014;12.052;2023-11-21T00:07:20;3.60;;;2.80;;
19038;SDS011;9652;49.014;12.052;2023-11-21T00:09:47;3.30;;;3.00;;
19038;SDS011;9652;49.014;12.052;2023-11-21T00:12:14;5.23;;;3.40;;
19038;SDS011;9652;49.014;12.052;2023-11-21T00:14:42;3.83;;;3.50;;
19038;SDS011;9652;49.014;12.052;2023-11-21T00:17:09;5.23;;;3.37;;
19038;SDS011;9652;49.014;12.052;2023-11-21T00:19:36;4.70;;;3.30;;
19038;SDS011;9652;49.014;12.052;2023-11-21T00:22:03;3.47;;;3.17;;
19038;SDS011;9652;49.014;12.052;2023-11-21T00:24:31;2.90;;;2.60;;
19038;SDS011;9652;49.014;12.052;2023-11-21T00:26:58;3.20;;;2.90;;
19038;SDS011;9652;49.014;12.052;2023-11-21T00:29:25;3.63;;;2.80;;
19038;SDS011;9652;49.014;12.052;2023-11-21T00:31:53;3.97;;;3.00;;
19038;SDS011;9652;49.014;12.052;2023-11-21T00:34:22;3.83;;;3.07;;
19038;SDS011;9652;49.014;12.052;2023-11-21T00:36:49;5.87;;;3.30;;
19038;SDS011;9652;49.014;12.052;2023-11-21T00:39:16;4.03;;;3.03;;
19038;SDS011;9652;49.014;12.052;2023-11-21T00:41:43;4.73;;;2.90;;
19038;SDS011;9652;49.014;12.052;2023-11-21T00:44:10;3.80;;;3.40;;
19038;SDS011;9652;49.014;12.052;2023-11-21T00:46:38;3.20;;;2.90;;
19038;SDS011;9652;49.014;12.052;2023-11-21T00:49:05;4.57;;;3.60;;
19038;SDS011;9652;49.014;12.052;2023-11-21T00:51:34;4.03;;;3.17;;
19038;SDS011;9652;49.014;12.052;2023-11-21T00:54:01;3.00;;;2.70;;
19038;SDS011;9652;49.014;12.052;2023-11-21T00:56:29;3.40;;;2.87;;
19038;SDS011;9652;49.014;12.052;2023-11-21T00:58:57;5.20;;;3.80;;
19038;SDS011;9652;49.014;12.052;2023-11-21T01:01:24;4.50;;;3.60;;
19038;SDS011;9652;49.014;12.052;2023-11-21T01:03:51;4.73;;;3.07;;
19038;SDS011;9652;49.014;12.052;2023-11-21T01:06:19;4.33;;;3.10;;
19038;SDS011;9652;49.014;12.052;2023-11-21T01:08:48;3.87;;;3.47;;
19038;SDS011;9652;49.014;12.052;2023-11-21T01:11:15;4.83;;;3.13;;
19038;SDS011;9652;49.014;12.052;2023-11-21T01:13:43;8.97;;;3.40;;
19038;SDS011;9652;49.014;12.052;2023-11-21T01:16:10;4.30;;;3.27;;
19038;SDS011;9652;49.014;12.052;2023-11-21T01:18:39;4.87;;;2.93;;
19038;SDS011;9652;49.014;12.052;2023-11-21T01:21:06;4.20;;;2.90;;
19038;SDS011;9652;49.014;12.052;2023-11-21T01:23:34;5.37;;;3.20;;
19038;SDS011;9652;49.014;12.052;2023-11-21T01:26:02;3.00;;;2.70;;
19038;SDS011;9652;49.014;12.052;2023-11-21T01:28:30;6.17;;;2.70;;
19038;SDS011;9652;49.014;12.052;2023-11-21T01:30:57;5.83;;;2.40;;
19038;SDS011;9652;49.014;12.052;2023-11-21T01:33:24;3.57;;;2.77;;
19038;SDS011;9652;49.014;12.052;2023-11-21T01:35:51;4.67;;;2.97;;
19038;SDS011;9652;49.014;12.052;2023-11-21T01:38:20;4.40;;;3.07;;
19038;SDS011;9652;49.014;12.052;2023-11-21T01:40:47;3.07;;;2.77;;
19038;SDS011;9652;49.014;12.052;2023-11-21T01:43:15;3.80;;;2.87;;
19038;SDS011;9652;49.014;12.052;2023-11-21T01:45:43;3.30;;;3.00;;
19038;SDS011;9652;49.014;12.052;2023-11-21T01:48:11;3.57;;;2.40;;
19038;SDS011;9652;49.014;12.052;2023-11-21T01:50:41;2.50;;;2.30;;
19038;SDS011;9652;49.014;12.052;2023-11-21T01:53:11;2.60;;;2.40;;
19038;SDS011;9652;49.014;12.052;2023-11-21T01:55:39;3.70;;;2.60;;
19038;SDS011;9652;49.014;12.052;2023-11-21T01:58:09;2.30;;;2.10;;
19038;SDS011;9652;49.014;12.052;2023-11-21T02:00:39;2.83;;;2.53;;
19038;SDS011;9652;49.014;12.052;2023-11-21T02:03:06;3.97;;;2.63;;
19038;SDS011;9652;49.014;12.052;2023-11-21T02:05:35;3.23;;;2.93;;
19038;SDS011;9652;49.014;12.052;2023-11-21T02:08:02;2.63;;;2.37;;
19038;SDS011;9652;49.014;12.052;2023-11-21T02:10:30;2.60;;;2.40;;
19038;SDS011;9652;49.014;12.052;2023-11-21T02:12:58;3.60;;;2.70;;
19038;SDS011;9652;49.014;12.052;2023-11-21T02:15:27;3.07;;;2.73;;
19038;SDS011;9652;49.014;12.052;2023-11-21T02:17:56;2.47;;;2.03;;
19038;SDS011;9652;49.014;12.052;2023-11-21T02:20:24;2.17;;;1.90;;
19038;SDS011;9652;49.014;12.052;2023-11-21T02:22:55;2.00;;;1.90;;
19038;SDS011;9652;49.014;12.052;2023-11-21T02:25:24;2.37;;;1.97;;
19038;SDS011;9652;49.014;12.052;2023-11-21T02:27:52;2.27;;;2.00;;
19038;SDS011;9652;49.014;12.052;2023-11-21T02:30:20;2.97;;;2.30;;
19038;SDS011;9652;49.014;12.052;2023-11-21T02:32:47;2.00;;;1.90;;
19038;SDS011;9652;49.014;12.052;2023-11-21T02:35:15;2.43;;;2.23;;
19038;SDS011;9652;49.014;12.052;2023-11-21T02:37:42;2.63;;;2.43;;
19038;SDS011;9652;49.014;12.052;2023-11-21T02:40:11;2.60;;;2.40;;
19038;SDS011;9652;49.014;12.052;2023-11-21T02:42:42;2.50;;;2.40;;
19038;SDS011;9652;49.014;12.052;2023-11-21T02:45:09;2.60;;;2.40;;
19038;SDS011;9652;49.014;12.052;2023-11-21T02:47:38;2.00;;;1.90;;
19038;SDS011;9652;49.014;12.052;2023-11-21T02:50:05;4.83;;;2.50;;
19038;SDS011;9652;49.014;12.052;2023-11-21T02:52:34;2.10;;;2.00;;
19038;SDS011;9652;49.014;12.052;2023-11-21T02:55:01;3.17;;;2.33;;
19038;SDS011;9652;49.014;12.052;2023-11-21T02:57:30;5.57;;;2.87;;
19038;SDS011;9652;49.014;12.052;2023-11-21T02:59:57;2.47;;;2.27;;
19038;SDS011;9652;49.014;12.052;2023-11-21T03:02:25;2.40;;;2.20;;
19038;SDS011;9652;49.014;12.052;2023-11-21T03:04:52;2.80;;;1.80;;
19038;SDS011;9652;49.014;12.052;2023-11-21T03:07:19;2.87;;;2.27;;
19038;SDS011;9652;49.014;12.052;2023-11-21T03:09:46;3.73;;;1.87;;
19038;SDS011;9652;49.014;12.052;2023-11-21T03:12:14;3.67;;;2.67;;
19038;SDS011;9652;49.014;12.052;2023-11-21T03:14:42;2.33;;;2.10;;
19038;SDS011;9652;49.014;12.052;2023-11-21T03:17:09;2.07;;;1.97;;
19038;SDS011;9652;49.014;12.052;2023-11-21T03:19:36;2.77;;;2.57;;
19038;SDS011;9652;49.014;12.052;2023-11-21T03:22:04;2.90;;;2.70;;
19038;SDS011;9652;49.014;12.052;2023-11-21T03:24:31;4.17;;;2.30;;
19038;SDS011;9652;49.014;12.052;2023-11-21T03:26:58;3.83;;;2.10;;
19038;SDS011;9652;49.014;12.052;2023-11-21T03:29:25;3.70;;;2.27;;
19038;SDS011;9652;49.014;12.052;2023-11-21T03:31:54;3.13;;;2.43;;
19038;SDS011;9652;49.014;12.052;2023-11-21T03:34:23;2.77;;;2.53;;
19038;SDS011;9652;49.014;12.052;2023-11-21T03:36:52;2.90;;;2.30;;
19038;SDS011;9652;49.014;12.052;2023-11-21T03:39:19;3.37;;;2.33;;
19038;SDS011;9652;49.014;12.052;2023-11-21T03:41:48;3.73;;;2.33;;
19038;SDS011;9652;49.014;12.052;2023-11-21T03:44:17;3.90;;;2.30;;
19038;SDS011;9652;49.014;12.052;2023-11-21T03:46:44;4.80;;;2.53;;
19038;SDS011;9652;49.014;12.052;2023-11-21T03:49:12;2.43;;;1.93;;
19038;SDS011;9652;49.014;12.052;2023-11-21T03:51:40;3.13;;;2.43;;
19038;SDS011;9652;49.014;12.052;2023-11-21T03:54:08;4.87;;;2.53;;
19038;SDS011;9652;49.014;12.052;2023-11-21T03:56:38;2.33;;;2.13;;
19038;SDS011;9652;49.014;12.052;2023-11-21T03:59:05;3.13;;;2.30;;
19038;SDS011;9652;49.014;12.052;2023-11-21T04:01:32;2.23;;;2.03;;
19038;SDS011;9652;49.014;12.052;2023-11-21T04:03:59;3.23;;;2.93;;
19038;SDS011;9652;49.014;12.052;2023-11-21T04:06:28;2.77;;;2.57;;
19038;SDS011;9652;49.014;12.052;2023-11-21T04:08:55;4.07;;;2.93;;
19038;SDS011;9652;49.014;12.052;2023-11-21T04:11:22;2.97;;;2.70;;
19038;SDS011;9652;49.014;12.052;2023-11-21T04:13:49;2.50;;;2.30;;
19038;SDS011;9652;49.014;12.052;2023-11-21T04:16:16;2.30;;;2.10;;
19038;SDS011;9652;49.014;12.052;2023-11-21T04:18:43;3.47;;;2.70;;
19038;SDS011;9652;49.014;12.052;2023-11-21T04:21:10;2.43;;;2.23;;
19038;SDS011;9652;49.014;12.052;2023-11-21T04:23:39;2.43;;;2.23;;
19038;SDS011;9652;49.014;12.052;2023-11-21T04:26:06;3.13;;;2.20;;
19038;SDS011;9652;49.014;12.052;2023-11-21T04:28:33;2.70;;;2.50;;
19038;SDS011;9652;49.014;12.052;2023-11-21T04:31:00;3.30;;;2.80;;
19038;SDS011;9652;49.014;12.052;2023-11-21T04:33:28;3.10;;;2.70;;
19038;SDS011;9652;49.014;12.052;2023-11-21T04:35:55;3.30;;;3.00;;
19038;SDS011;9652;49.014;12.052;2023-11-21T04:38:22;3.70;;;2.67;;
19038;SDS011;9652;49.014;12.052;2023-11-21T04:40:51;2.97;;;2.73;;
19038;SDS011;9652;49.014;12.052;2023-11-21T04:43:18;2.93;;;2.73;;
19038;SDS011;9652;49.014;12.052;2023-11-21T04:45:45;3.50;;;2.63;;
19038;SDS011;9652;49.014;12.052;2023-11-21T04:48:12;5.07;;;3.63;;
19038;SDS011;9652;49.014;12.052;2023-11-21T04:50:39;3.07;;;2.70;;
19038;SDS011;9652;49.014;12.052;2023-11-21T04:53:06;3.67;;;2.47;;
19038;SDS011;9652;49.014;12.052;2023-11-21T04:55:33;4.10;;;3.40;;
19038;SDS011;9652;49.014;12.052;2023-11-21T04:58:01;4.47;;;3.03;;
19038;SDS011;9652;49.014;12.052;2023-11-21T05:00:29;4.23;;;2.90;;
19038;SDS011;9652;49.014;12.052;2023-11-21T05:02:56;3.70;;;3.40;;
19038;SDS011;9652;49.014;12.052;2023-11-21T05:05:23;4.10;;;3.13;;
19038;SDS011;9652;49.014;12.052;2023-11-21T05:07:50;5.70;;;2.87;;
19038;SDS011;9652;49.014;12.052;2023-11-21T05:10:18;4.07;;;3.17;;
19038;SDS011;9652;49.014;12.052;2023-11-21T05:12:45;6.57;;;3.90;;
19038;SDS011;9652;49.014;12.052;2023-11-21T05:15:15;4.17;;;3.83;;
19038;SDS011;9652;49.014;12.052;2023-11-21T05:17:43;3.80;;;3.40;;
19038;SDS011;9652;49.014;12.052;2023-11-21T05:20:15;3.60;;;3.20;;
19038;SDS011;9652;49.014;12.052;2023-11-21T05:22:46;3.87;;;3.50;;
19038;SDS011;9652;49.014;12.052;2023-11-21T05:25:13;3.43;;;2.97;;
19038;SDS011;9652;49.014;12.052;2023-11-21T05:27:42;4.20;;;3.33;;
19038;SDS011;9652;49.014;12.052;2023-11-21T05:30:09;4.20;;;3.80;;
19038;SDS011;9652;49.014;12.052;2023-11-21T05:32:39;4.57;;;3.73;;
19038;SDS011;9652;49.014;12.052;2023-11-21T05:35:08;5.13;;;4.00;;
19038;SDS011;9652;49.014;12.052;2023-11-21T05:37:39;6.47;;;3.87;;
19038;SDS011;9652;49.014;12.052;2023-11-21T05:40:06;4.27;;;3.87;;
19038;SDS011;9652;49.014;12.052;2023-11-21T05:42:35;4.83;;;3.57;;
19038;SDS011;9652;49.014;12.052;2023-11-21T05:45:04;5.10;;;3.77;;
19038;SDS011;9652;49.014;12.052;2023-11-21T05:47:36;4.00;;;3.57;;
19038;SDS011;9652;49.014;12.052;2023-11-21T05:50:06;6.47;;;4.10;;
19038;SDS011;9652;49.014;12.052;2023-11-21T05:52:37;4.73;;;3.97;;
19038;SDS011;9652;49.014;12.052;2023-11-21T05:55:05;4.97;;;3.60;;
19038;SDS011;9652;49.014;12.052;2023-11-21T05:57:33;4.97;;;3.63;;
19038;SDS011;9652;49.014;12.052;2023-11-21T06:00:02;7.60;;;4.47;;
19038;SDS011;9652;49.014;12.052;2023-11-21T06:02:36;5.60;;;4.13;;
19038;SDS011;9652;49.014;12.052;2023-11-21T06:05:06;5.00;;;3.70;;
19038;SDS011;9652;49.014;12.052;2023-11-21T06:07:34;7.60;;;3.90;;
19038;SDS011;9652;49.014;12.052;2023-11-21T06:10:02;4.70;;;4.13;;
19038;SDS011;9652;49.014;12.052;2023-11-21T06:12:31;5.27;;;3.93;;
19038;SDS011;9652;49.014;12.052;2023-11-21T06:15:01;5.57;;;4.37;;
19038;SDS011;9652;49.014;12.052;2023-11-21T06:17:30;4.27;;;3.87;;
19038;SDS011;9652;49.014;12.052;2023-11-21T06:19:59;8.67;;;4.23;;
19038;SDS011;9652;49.014;12.052;2023-11-21T06:22:26;4.93;;;4.00;;
19038;SDS011;9652;49.014;12.052;2023-11-21T06:24:53;4.97;;;4.10;;
19038;SDS011;9652;49.014;12.052;2023-11-21T06:27:20;5.27;;;3.77;;
19038;SDS011;9652;49.014;12.052;2023-11-21T06:29:50;5.13;;;4.33;;
19038;SDS011;9652;49.014;12.052;2023-11-21T06:32:17;3.97;;;3.60;;
19038;SDS011;9652;49.014;12.052;2023-11-21T06:34:45;6.23;;;4.60;;
19038;SDS011;9652;49.014;12.052;2023-11-21T06:37:14;5.10;;;4.53;;
19038;SDS011;9652;49.014;12.052;2023-11-21T06:39:41;4.27;;;3.87;;
19038;SDS011;9652;49.014;12.052;2023-11-21T06:42:09;5.53;;;4.40;;
19038;SDS011;9652;49.014;12.052;2023-11-21T06:44:36;4.60;;;3.93;;
19038;SDS011;9652;49.014;12.052;2023-11-21T06:47:03;5.00;;;4.50;;
19038;SDS011;9652;49.014;12.052;2023-11-21T06:49:31;5.63;;;4.50;;
19038;SDS011;9652;49.014;12.052;2023-11-21T06:51:58;5.23;;;4.67;;
19038;SDS011;9652;49.014;12.052;2023-11-21T06:54:30;5.97;;;4.77;;
19038;SDS011;9652;49.014;12.052;2023-11-21T06:56:58;6.50;;;4.03;;
19038;SDS011;9652;49.014;12.052;2023-11-21T06:59:25;4.77;;;4.27;;
19038;SDS011;9652;49.014;12.052;2023-11-21T07:01:52;4.87;;;4.37;;
19038;SDS011;9652;49.014;12.052;2023-11-21T07:04:19;5.53;;;4.17;;
19038;SDS011;9652;49.014;12.052;2023-11-21T07:06:46;7.43;;;4.20;;
19038;SDS011;9652;49.014;12.052;2023-11-21T07:09:13;4.90;;;4.10;;
19038;SDS011;9652;49.014;12.052;2023-11-21T07:11:42;6.07;;;4.60;;
19038;SDS011;9652;49.014;12.052;2023-11-21T07:14:09;5.27;;;4.47;;
19038;SDS011;9652;49.014;12.052;2023-11-21T07:16:37;5.20;;;4.73;;
19038;SDS011;9652;49.014;12.052;2023-11-21T07:19:04;5.17;;;4.20;;
19038;SDS011;9652;49.014;12.052;2023-11-21T07:21:32;5.70;;;4.47;;
19038;SDS011;9652;49.014;12.052;2023-11-21T07:23:59;7.17;;;4.57;;
19038;SDS011;9652;49.014;12.052;2023-11-21T07:26:27;6.43;;;4.50;;
19038;SDS011;9652;49.014;12.052;2023-11-21T07:28:55;4.57;;;4.17;;
19038;SDS011;9652;49.014;12.052;2023-11-21T07:31:22;6.70;;;4.20;;
19038;SDS011;9652;49.014;12.052;2023-11-21T07:33:50;6.53;;;4.43;;
19038;SDS011;9652;49.014;12.052;2023-11-21T07:36:17;5.67;;;4.57;;
19038;SDS011;9652;49.014;12.052;2023-11-21T07:38:45;5.67;;;4.40;;
19038;SDS011;9652;49.014;12.052;2023-11-21T07:41:13;6.03;;;4.30;;
19038;SDS011;9652;49.014;12.052;2023-11-21T07:43:41;5.63;;;4.90;;
19038;SDS011;9652;49.014;12.052;2023-11-21T07:46:10;7.97;;;4.47;;
19038;SDS011;9652;49.014;12.052;2023-11-21T07:48:37;5.00;;;4.50;;
19038;SDS011;9652;49.014;12.052;2023-11-21T07:51:06;6.23;;;3.60;;
19038;SDS011;9652;49.014;12.052;2023-11-21T07:53:33;4.70;;;4.10;;
19038;SDS011;9652;49.014;12.052;2023-11-21T07:56:02;6.67;;;4.43;;
19038;SDS011;9652;49.014;12.052;2023-11-21T07:58:31;6.63;;;4.40;;
19038;SDS011;9652;49.014;12.052;2023-11-21T08:00:58;6.47;;;4.13;;
19038;SDS011;9652;49.014;12.052;2023-11-21T08:03:27;5.90;;;3.77;;
19038;SDS011;9652;49.014;12.052;2023-11-21T08:05:55;4.13;;;3.70;;
19038;SDS011;9652;49.014;12.052;2023-11-21T08:08:22;4.77;;;3.87;;
19038;SDS011;9652;49.014;12.052;2023-11-21T08:10:49;3.97;;;3.27;;
19038;SDS011;9652;49.014;12.052;2023-11-21T08:13:21;6.43;;;4.20;;
19038;SDS011;9652;49.014;12.052;2023-11-21T08:15:49;4.07;;;3.67;;
19038;SDS011;9652;49.014;12.052;2023-11-21T08:18:17;3.83;;;3.27;;
19038;SDS011;9652;49.014;12.052;2023-11-21T08:20:45;5.73;;;3.70;;
19038;SDS011;9652;49.014;12.052;2023-11-21T08:23:13;7.30;;;3.50;;
19038;SDS011;9652;49.014;12.052;2023-11-21T08:25:42;4.20;;;3.17;;
19038;SDS011;9652;49.014;12.052;2023-11-21T08:28:09;5.93;;;3.00;;
19038;SDS011;9652;49.014;12.052;2023-11-21T08:30:37;4.53;;;3.77;;
19038;SDS011;9652;49.014;12.052;2023-11-21T08:33:04;3.70;;;3.40;;
19038;SDS011;9652;49.014;12.052;2023-11-21T08:35:32;2.93;;;2.63;;
19038;SDS011;9652;49.014;12.052;2023-11-21T08:38:00;4.23;;;2.97;;
19038;SDS011;9652;49.014;12.052;2023-11-21T08:40:29;3.63;;;3.20;;
19038;SDS011;9652;49.014;12.052;2023-11-21T08:42:56;3.33;;;2.93;;
19038;SDS011;9652;49.014;12.052;2023-11-21T08:45:24;4.47;;;3.43;;
19038;SDS011;9652;49.014;12.052;2023-11-21T08:47:52;3.70;;;3.40;;
19038;SDS011;9652;49.014;12.052;2023-11-21T08:50:19;7.23;;;3.63;;
19038;SDS011;9652;49.014;12.052;2023-11-21T08:52:46;4.53;;;2.97;;
19038;SDS011;9652;49.014;12.052;2023-11-21T08:55:15;4.03;;;3.10;;
19038;SDS011;9652;49.014;12.052;2023-11-21T08:57:45;2.80;;;2.60;;
19038;SDS011;9652;49.014;12.052;2023-11-21T09:00:12;4.83;;;3.17;;
19038;SDS011;9652;49.014;12.052;2023-11-21T09:02:42;2.70;;;2.50;;
19038;SDS011;9652;49.014;12.052;2023-11-21T09:05:09;3.33;;;3.03;;
19038;SDS011;9652;49.014;12.052;2023-11-21T09:07:38;3.83;;;2.73;;
19038;SDS011;9652;49.014;12.052;2023-11-21T09:10:07;4.17;;;2.80;;
19038;SDS011;9652;49.014;12.052;2023-11-21T09:12:36;7.30;;;3.10;;
19038;SDS011;9652;49.014;12.052;2023-11-21T09:15:04;3.60;;;2.80;;
19038;SDS011;9652;49.014;12.052;2023-11-21T09:17:34;4.13;;;2.73;;
19038;SDS011;9652;49.014;12.052;2023-11-21T09:20:02;5.37;;;3.30;;
19038;SDS011;9652;49.014;12.052;2023-11-21T09:22:31;4.03;;;2.97;;
19038;SDS011;9652;49.014;12.052;2023-11-21T09:24:58;4.30;;;2.70;;
19038;SDS011;9652;49.014;12.052;2023-11-21T09:27:25;4.20;;;3.27;;
19038;SDS011;9652;49.014;12.052;2023-11-21T09:29:53;3.40;;;3.10;;
19038;SDS011;9652;49.014;12.052;2023-11-21T09:32:20;3.73;;;2.93;;
19038;SDS011;9652;49.014;12.052;2023-11-21T09:34:47;4.17;;;3.30;;
19038;SDS011;9652;49.014;12.052;2023-11-21T09:37:15;3.67;;;3.10;;
19038;SDS011;9652;49.014;12.052;2023-11-21T09:39:42;4.67;;;3.10;;
19038;SDS011;9652;49.014;12.052;2023-11-21T09:42:10;3.20;;;2.90;;
19038;SDS011;9652;49.014;12.052;2023-11-21T09:44:44;4.17;;;2.80;;
19038;SDS011;9652;49.014;12.052;2023-11-21T09:47:19;3.53;;;2.87;;
19038;SDS011;9652;49.014;12.052;2023-11-21T09:49:48;4.30;;;2.63;;
19038;SDS011;9652;49.014;12.052;2023-11-21T09:52:20;3.73;;;2.73;;
19038;SDS011;9652;49.014;12.052;2023-11-21T09:54:52;2.77;;;2.57;;
19038;SDS011;9652;49.014;12.052;2023-11-21T09:57:22;5.60;;;2.37;;
19038;SDS011;9652;49.014;12.052;2023-11-21T09:59:51;4.03;;;2.50;;
19038;SDS011;9652;49.014;12.052;2023-11-21T10:02:26;2.53;;;2.33;;
19038;SDS011;9652;49.014;12.052;2023-11-21T10:04:56;3.37;;;2.60;;
19038;SDS011;9652;49.014;12.052;2023-11-21T10:07:24;2.80;;;2.40;;
19038;SDS011;9652;49.014;12.052;2023-11-21T10:09:53;2.47;;;2.27;;
19038;SDS011;9652;49.014;12.052;2023-11-21T10:12:22;3.30;;;2.50;;
19038;SDS011;9652;49.014;12.052;2023-11-21T10:14:51;2.93;;;2.17;;
19038;SDS011;9652;49.014;12.052;2023-11-21T10:17:26;2.23;;;1.93;;
19038;SDS011;9652;49.014;12.052;2023-11-21T10:20:02;2.10;;;2.00;;
19038;SDS011;9652;49.014;12.052;2023-11-21T10:22:37;1.90;;;1.70;;
19038;SDS011;9652;49.014;12.052;2023-11-21T10:25:06;2.33;;;1.93;;
19038;SDS011;9652;49.014;12.052;2023-11-21T10:27:34;2.13;;;2.00;;
19038;SDS011;9652;49.014;12.052;2023-11-21T10:30:01;2.03;;;1.93;;
19038;SDS011;9652;49.014;12.052;2023-11-21T10:32:30;2.03;;;1.87;;
19038;SDS011;9652;49.014;12.052;2023-11-21T10:34:58;1.80;;;1.70;;
19038;SDS011;9652;49.014;12.052;2023-11-21T10:37:31;2.03;;;1.83;;
19038;SDS011;9652;49.014;12.052;2023-11-21T10:39:59;2.33;;;2.13;;
19038;SDS011;9652;49.014;12.052;2023-11-21T10:42:26;1.60;;;1.50;;
19038;SDS011;9652;49.014;12.052;2023-11-21T10:44:53;1.90;;;1.80;;
19038;SDS011;9652;49.014;12.052;2023-11-21T10:47:21;1.70;;;1.60;;
19038;SDS011;9652;49.014;12.052;2023-11-21T10:49:51;2.73;;;2.50;;
19038;SDS011;9652;49.014;12.052;2023-11-21T10:52:19;1.83;;;1.70;;
19038;SDS011;9652;49.014;12.052;2023-11-21T10:54:46;2.20;;;2.00;;
19038;SDS011;9652;49.014;12.052;2023-11-21T10:57:15;2.10;;;1.87;;
19038;SDS011;9652;49.014;12.052;2023-11-21T10:59:46;2.53;;;2.33;;
19038;SDS011;9652;49.014;12.052;2023-11-21T11:02:17;2.30;;;2.10;;
19038;SDS011;9652;49.014;12.052;2023-11-21T11:04:54;4.17;;;2.53;;
19038;SDS011;9652;49.014;12.052;2023-11-21T11:07:23;2.53;;;2.33;;
19038;SDS011;9652;49.014;12.052;2023-11-21T11:09:55;2.33;;;2.13;;
19038;SDS011;9652;49.014;12.052;2023-11-21T11:12:25;3.10;;;1.87;;
19038;SDS011;9652;49.014;12.052;2023-11-21T11:14:53;2.47;;;2.10;;
19038;SDS011;9652;49.014;12.052;2023-11-21T11:17:23;2.03;;;1.87;;
19038;SDS011;9652;49.014;12.052;2023-11-21T11:19:50;2.50;;;2.23;;
19038;SDS011;9652;49.014;12.052;2023-11-21T11:22:36;2.20;;;2.00;;
19038;SDS011;9652;49.014;12.052;2023-11-21T11:28:10;2.00;;;1.83;;
19038;SDS011;9652;49.014;12.052;2023-11-21T11:30:47;1.87;;;1.77;;
19038;SDS011;9652;49.014;12.052;2023-11-21T11:33:31;1.77;;;1.67;;
19038;SDS011;9652;49.014;12.052;2023-11-21T11:36:09;1.77;;;1.67;;
19038;SDS011;9652;49.014;12.052;2023-11-21T11:38:46;2.60;;;1.90;;
19038;SDS011;9652;49.014;12.052;2023-11-21T11:41:19;2.03;;;1.70;;
19038;SDS011;9652;49.014;12.052;2023-11-21T11:43:52;2.33;;;1.73;;
19038;SDS011;9652;49.014;12.052;2023-11-21T11:46:19;2.10;;;1.90;;
19038;SDS011;9652;49.014;12.052;2023-11-21T11:48:47;2.70;;;1.90;;
19038;SDS011;9652;49.014;12.052;2023-11-21T11:51:28;2.13;;;1.80;;
19038;SDS011;9652;49.014;12.052;2023-11-21T11:53:58;3.07;;;1.77;;
19038;SDS011;9652;49.014;12.052;2023-11-21T11:56:25;1.83;;;1.73;;
19038;SDS011;9652;49.014;12.052;2023-11-21T11:58:56;3.40;;;1.90;;
19038;SDS011;9652;49.014;12.052;2023-11-21T12:01:25;2.23;;;1.90;;
19038;SDS011;9652;49.014;12.052;2023-11-21T12:06:56;3.90;;;2.23;;
19038;SDS011;9652;49.014;12.052;2023-11-21T12:09:29;2.53;;;1.80;;
19038;SDS011;9652;49.014;12.052;2023-11-21T12:11:58;1.97;;;1.73;;
19038;SDS011;9652;49.014;12.052;2023-11-21T12:14:26;3.67;;;1.90;;
19038;SDS011;9652;49.014;12.052;2023-11-21T12:16:54;3.07;;;1.80;;
19038;SDS011;9652;49.014;12.052;2023-11-21T12:19:21;2.27;;;2.07;;
19038;SDS011;9652;49.014;12.052;2023-11-21T12:21:49;1.83;;;1.73;;
19038;SDS011;9652;49.014;12.052;2023-11-21T12:24:17;2.00;;;1.80;;
19038;SDS011;9652;49.014;12.052;2023-11-21T12:26:45;1.93;;;1.77;;
19038;SDS011;9652;49.014;12.052;2023-11-21T12:29:13;3.13;;;2.43;;
19038;SDS011;9652;49.014;12.052;2023-11-21T12:31:41;1.93;;;1.53;;
19038;SDS011;9652;49.014;12.052;2023-11-21T12:34:10;3.20;;;2.00;;
19038;SDS011;9652;49.014;12.052;2023-11-21T12:36:38;2.50;;;1.83;;
19038;SDS011;9652;49.014;12.052;2023-11-21T12:39:05;2.13;;;1.93;;
19038;SDS011;9652;49.014;12.052;2023-11-21T12:41:34;3.13;;;1.90;;
19038;SDS011;9652;49.014;12.052;2023-11-21T12:44:03;2.13;;;1.93;;
19038;SDS011;9652;49.014;12.052;2023-11-21T12:46:36;2.00;;;1.53;;
19038;SDS011;9652;49.014;12.052;2023-11-21T12:49:10;1.23;;;1.13;;
19038;SDS011;9652;49.014;12.052;2023-11-21T12:51:42;1.23;;;1.17;;
19038;SDS011;9652;49.014;12.052;2023-11-21T12:54:11;1.80;;;1.70;;
19038;SDS011;9652;49.014;12.052;2023-11-21T12:56:39;1.80;;;1.47;;
19038;SDS011;9652;49.014;12.052;2023-11-21T12:59:07;1.67;;;1.40;;
19038;SDS011;9652;49.014;12.052;2023-11-21T13:01:41;1.47;;;1.37;;
19038;SDS011;9652;49.014;12.052;2023-11-21T13:04:08;2.50;;;1.87;;
19038;SDS011;9652;49.014;12.052;2023-11-21T13:06:36;2.23;;;1.90;;
19038;SDS011;9652;49.014;12.052;2023-11-21T13:09:06;1.70;;;1.57;;
19038;SDS011;9652;49.014;12.052;2023-11-21T13:11:36;2.13;;;1.93;;
19038;SDS011;9652;49.014;12.052;2023-11-21T13:14:06;2.07;;;1.87;;
19038;SDS011;9652;49.014;12.052;2023-11-21T13:16:36;1.97;;;1.87;;
19038;SDS011;9652;49.014;12.052;2023-11-21T13:19:04;2.17;;;2.07;;
19038;SDS011;9652;49.014;12.052;2023-11-21T13:21:31;2.27;;;2.07;;
19038;SDS011;9652;49.014;12.052;2023-11-21T13:23:58;2.40;;;2.20;;
19038;SDS011;9652;49.014;12.052;2023-11-21T13:26:25;1.90;;;1.80;;
19038;SDS011;9652;49.014;12.052;2023-11-21T13:28:52;2.13;;;1.83;;
19038;SDS011;9652;49.014;12.052;2023-11-21T13:31:21;2.63;;;1.93;;
19038;SDS011;9652;49.014;12.052;2023-11-21T13:33:52;13.07;;;2.40;;
19038;SDS011;9652;49.014;12.052;2023-11-21T13:36:24;2.30;;;2.10;;
19038;SDS011;9652;49.014;12.052;2023-11-21T13:38:55;2.33;;;2.10;;
19038;SDS011;9652;49.014;12.052;2023-11-21T13:41:23;2.73;;;2.13;;
19038;SDS011;9652;49.014;12.052;2023-11-21T13:43:55;1.93;;;1.73;;
19038;SDS011;9652;49.014;12.052;2023-11-21T13:46:32;2.20;;;2.00;;
19038;SDS011;9652;49.014;12.052;2023-11-21T13:49:02;2.60;;;2.00;;
19038;SDS011;9652;49.014;12.052;2023-11-21T13:51:34;2.30;;;2.10;;
19038;SDS011;9652;49.014;12.052;2023-11-21T13:54:05;2.40;;;2.20;;
19038;SDS011;9652;49.014;12.052;2023-11-21T13:56:34;2.20;;;2.00;;
19038;SDS011;9652;49.014;12.052;2023-11-21T13:59:02;2.07;;;1.90;;
19038;SDS011;9652;49.014;12.052;2023-11-21T14:01:39;2.60;;;1.97;;
19038;SDS011;9652;49.014;12.052;2023-11-21T14:04:24;2.00;;;1.90;;
19038;SDS011;9652;49.014;12.052;2023-11-21T14:07:12;2.90;;;2.27;;
19038;SDS011;9652;49.014;12.052;2023-11-21T14:09:50;2.63;;;2.00;;
19038;SDS011;9652;49.014;12.052;2023-11-21T14:12:18;1.93;;;1.83;;
19038;SDS011;9652;49.014;12.052;2023-11-21T14:14:45;2.10;;;1.90;;
19038;SDS011;9652;49.014;12.052;2023-11-21T14:17:14;2.80;;;2.00;;
19038;SDS011;9652;49.014;12.052;2023-11-21T14:19:41;2.40;;;2.20;;
19038;SDS011;9652;49.014;12.052;2023-11-21T14:22:09;2.27;;;2.07;;
19038;SDS011;9652;49.014;12.052;2023-11-21T14:24:36;2.37;;;2.17;;
19038;SDS011;9652;49.014;12.052;2023-11-21T14:27:09;1.93;;;1.77;;
19038;SDS011;9652;49.014;12.052;2023-11-21T14:29:36;2.67;;;1.93;;
19038;SDS011;9652;49.014;12.052;2023-11-21T14:32:05;2.63;;;2.33;;
19038;SDS011;9652;49.014;12.052;2023-11-21T14:34:34;2.50;;;2.30;;
19038;SDS011;9652;49.014;12.052;2023-11-21T14:37:01;2.67;;;2.47;;
19038;SDS011;9652;49.014;12.052;2023-11-21T14:39:29;3.43;;;2.40;;
19038;SDS011;9652;49.014;12.052;2023-11-21T14:42:00;2.43;;;2.23;;
19038;SDS011;9652;49.014;12.052;2023-11-21T14:44:28;2.80;;;2.30;;
19038;SDS011;9652;49.014;12.052;2023-11-21T14:47:00;2.40;;;2.17;;
19038;SDS011;9652;49.014;12.052;2023-11-21T14:49:32;2.80;;;2.53;;
19038;SDS011;9652;49.014;12.052;2023-11-21T14:52:15;3.43;;;2.33;;
19038;SDS011;9652;49.014;12.052;2023-11-21T14:54:56;2.80;;;2.60;;
19038;SDS011;9652;49.014;12.052;2023-11-21T14:57:45;3.30;;;2.53;;
19038;SDS011;9652;49.014;12.052;2023-11-21T15:00:15;2.40;;;2.20;;
19038;SDS011;9652;49.014;12.052;2023-11-21T15:02:57;2.83;;;2.60;;
19038;SDS011;9652;49.014;12.052;2023-11-21T15:05:25;4.03;;;2.67;;